sensor_id;sensor_type;location;lat;lon;timestamp;P1;durP1;ratioP1;P2;durP2;ratioP2
31306;SDS011;17935;51.120;13.132;2023-11-22T00:00:54;35.05;;;14.85;;
31306;SDS011;17935;51.120;13.132;2023-11-22T00:03:31;26.80;;;13.70;;
31306;SDS011;17935;51.120;13.132;2023-11-22T00:06:28;24.83;;;12.88;;
31306;SDS011;17935;51.120;13.132;2023-11-22T00:08:57;30.13;;;14.80;;
31306;SDS011;17935;51.120;13.132;2023-11-22T00:14:32;30.85;;;12.00;;
31306;SDS011;17935;51.120;13.132;2023-11-22T00:17:38;22.92;;;12.75;;
31306;SDS011;17935;51.120;13.132;2023-11-22T00:20:47;26.75;;;13.02;;
31306;SDS011;17935;51.120;13.132;2023-11-22T00:23:13;22.25;;;12.07;;
31306;SDS011;17935;51.120;13.132;2023-11-22T00:26:04;32.80;;;13.95;;
31306;SDS011;17935;51.120;13.132;2023-11-22T00:28:41;28.55;;;14.57;;
31306;SDS011;17935;51.120;13.132;2023-11-22T00:31:19;29.00;;;13.30;;
31306;SDS011;17935;51.120;13.132;2023-11-22T00:39:57;25.33;;;13.75;;
31306;SDS011;17935;51.120;13.132;2023-11-22T00:42:53;28.45;;;13.23;;
31306;SDS011;17935;51.120;13.132;2023-11-22T00:45:45;23.55;;;11.65;;
31306;SDS011;17935;51.120;13.132;2023-11-22T00:48:36;27.02;;;12.55;;
31306;SDS011;17935;51.120;13.132;2023-11-22T00:51:16;22.40;;;11.65;;
31306;SDS011;17935;51.120;13.132;2023-11-22T00:54:18;22.42;;;11.57;;
31306;SDS011;17935;51.120;13.132;2023-11-22T00:57:10;19.33;;;10.82;;
31306;SDS011;17935;51.120;13.132;2023-11-22T00:59:54;23.42;;;11.63;;
31306;SDS011;17935;51.120;13.132;2023-11-22T01:02:31;20.92;;;10.30;;
31306;SDS011;17935;51.120;13.132;2023-11-22T01:05:28;20.75;;;10.85;;
31306;SDS011;17935;51.120;13.132;2023-11-22T01:08:20;24.42;;;11.23;;
31306;SDS011;17935;51.120;13.132;2023-11-22T01:13:28;18.73;;;9.60;;
31306;SDS011;17935;51.120;13.132;2023-11-22T01:16:19;17.60;;;9.93;;
31306;SDS011;17935;51.120;13.132;2023-11-22T01:18:55;18.38;;;10.23;;
31306;SDS011;17935;51.120;13.132;2023-11-22T01:21:41;17.70;;;8.88;;
31306;SDS011;17935;51.120;13.132;2023-11-22T01:24:13;18.17;;;9.95;;
31306;SDS011;17935;51.120;13.132;2023-11-22T01:26:55;26.17;;;11.35;;
31306;SDS011;17935;51.120;13.132;2023-11-22T01:29:32;24.23;;;10.95;;
31306;SDS011;17935;51.120;13.132;2023-11-22T01:37:20;29.38;;;11.23;;
31306;SDS011;17935;51.120;13.132;2023-11-22T01:43:16;16.63;;;10.10;;
31306;SDS011;17935;51.120;13.132;2023-11-22T01:45:55;19.00;;;9.35;;
31306;SDS011;17935;51.120;13.132;2023-11-22T01:48:40;16.13;;;9.27;;
31306;SDS011;17935;51.120;13.132;2023-11-22T01:51:39;16.05;;;8.68;;
31306;SDS011;17935;51.120;13.132;2023-11-22T01:54:10;19.83;;;9.75;;
31306;SDS011;17935;51.120;13.132;2023-11-22T01:56:50;12.88;;;8.43;;
31306;SDS011;17935;51.120;13.132;2023-11-22T01:59:38;19.33;;;8.07;;
31306;SDS011;17935;51.120;13.132;2023-11-22T02:05:22;16.42;;;8.15;;
31306;SDS011;17935;51.120;13.132;2023-11-22T02:08:09;16.77;;;9.10;;
31306;SDS011;17935;51.120;13.132;2023-11-22T02:11:06;15.10;;;7.72;;
31306;SDS011;17935;51.120;13.132;2023-11-22T02:13:43;15.15;;;8.07;;
31306;SDS011;17935;51.120;13.132;2023-11-22T02:16:19;18.73;;;7.40;;
31306;SDS011;17935;51.120;13.132;2023-11-22T02:18:58;17.27;;;8.82;;
31306;SDS011;17935;51.120;13.132;2023-11-22T02:21:38;12.85;;;7.57;;
31306;SDS011;17935;51.120;13.132;2023-11-22T02:24:12;15.48;;;8.63;;
31306;SDS011;17935;51.120;13.132;2023-11-22T02:27:10;13.57;;;8.13;;
31306;SDS011;17935;51.120;13.132;2023-11-22T02:29:48;14.20;;;7.68;;
31306;SDS011;17935;51.120;13.132;2023-11-22T02:35:39;15.55;;;7.95;;
31306;SDS011;17935;51.120;13.132;2023-11-22T02:39:08;15.98;;;8.63;;
31306;SDS011;17935;51.120;13.132;2023-11-22T02:41:44;14.65;;;7.90;;
31306;SDS011;17935;51.120;13.132;2023-11-22T02:44:39;20.13;;;9.50;;
31306;SDS011;17935;51.120;13.132;2023-11-22T02:50:23;18.77;;;9.30;;
31306;SDS011;17935;51.120;13.132;2023-11-22T02:53:12;17.85;;;8.75;;
31306;SDS011;17935;51.120;13.132;2023-11-22T02:55:42;15.07;;;8.00;;
31306;SDS011;17935;51.120;13.132;2023-11-22T02:58:40;15.38;;;8.52;;
31306;SDS011;17935;51.120;13.132;2023-11-22T03:01:09;18.80;;;9.25;;
31306;SDS011;17935;51.120;13.132;2023-11-22T03:04:04;16.92;;;8.93;;
31306;SDS011;17935;51.120;13.132;2023-11-22T03:06:55;20.15;;;8.60;;
31306;SDS011;17935;51.120;13.132;2023-11-22T03:09:38;18.40;;;9.85;;
31306;SDS011;17935;51.120;13.132;2023-11-22T03:12:28;16.40;;;8.75;;
31306;SDS011;17935;51.120;13.132;2023-11-22T03:15:42;19.95;;;9.32;;
31306;SDS011;17935;51.120;13.132;2023-11-22T03:21:41;17.52;;;9.27;;
31306;SDS011;17935;51.120;13.132;2023-11-22T03:24:26;16.65;;;8.75;;
31306;SDS011;17935;51.120;13.132;2023-11-22T03:27:34;17.83;;;9.85;;
31306;SDS011;17935;51.120;13.132;2023-11-22T03:30:25;21.13;;;10.10;;
31306;SDS011;17935;51.120;13.132;2023-11-22T03:36:22;16.85;;;9.57;;
31306;SDS011;17935;51.120;13.132;2023-11-22T03:39:11;21.63;;;10.73;;
31306;SDS011;17935;51.120;13.132;2023-11-22T03:41:55;22.40;;;10.43;;
31306;SDS011;17935;51.120;13.132;2023-11-22T03:44:29;23.95;;;9.65;;
31306;SDS011;17935;51.120;13.132;2023-11-22T03:46:58;15.07;;;7.93;;
31306;SDS011;17935;51.120;13.132;2023-11-22T03:49:43;19.52;;;9.07;;
31306;SDS011;17935;51.120;13.132;2023-11-22T03:52:53;17.77;;;7.97;;
31306;SDS011;17935;51.120;13.132;2023-11-22T03:55:42;15.77;;;8.38;;
31306;SDS011;17935;51.120;13.132;2023-11-22T03:58:48;17.42;;;8.10;;
31306;SDS011;17935;51.120;13.132;2023-11-22T04:01:49;14.48;;;8.27;;
31306;SDS011;17935;51.120;13.132;2023-11-22T04:07:58;14.32;;;7.47;;
31306;SDS011;17935;51.120;13.132;2023-11-22T04:14:33;16.35;;;9.65;;
31306;SDS011;17935;51.120;13.132;2023-11-22T04:17:41;16.90;;;9.20;;
31306;SDS011;17935;51.120;13.132;2023-11-22T04:20:20;21.90;;;9.90;;
31306;SDS011;17935;51.120;13.132;2023-11-22T04:26:35;19.70;;;9.63;;
31306;SDS011;17935;51.120;13.132;2023-11-22T04:43:49;19.27;;;9.80;;
31306;SDS011;17935;51.120;13.132;2023-11-22T04:46:55;23.42;;;11.32;;
31306;SDS011;17935;51.120;13.132;2023-11-22T04:53:00;18.40;;;9.45;;
31306;SDS011;17935;51.120;13.132;2023-11-22T04:55:54;18.63;;;9.95;;
31306;SDS011;17935;51.120;13.132;2023-11-22T04:58:32;16.58;;;9.55;;
31306;SDS011;17935;51.120;13.132;2023-11-22T05:07:46;21.13;;;11.10;;
31306;SDS011;17935;51.120;13.132;2023-11-22T05:13:38;19.30;;;10.68;;
31306;SDS011;17935;51.120;13.132;2023-11-22T05:16:45;21.55;;;11.25;;
31306;SDS011;17935;51.120;13.132;2023-11-22T05:19:58;25.23;;;10.85;;
31306;SDS011;17935;51.120;13.132;2023-11-22T05:22:35;22.30;;;10.73;;
31306;SDS011;17935;51.120;13.132;2023-11-22T05:25:33;24.10;;;10.65;;
31306;SDS011;17935;51.120;13.132;2023-11-22T05:28:17;20.08;;;10.27;;
31306;SDS011;17935;51.120;13.132;2023-11-22T05:31:00;18.15;;;9.27;;
31306;SDS011;17935;51.120;13.132;2023-11-22T05:33:51;21.90;;;9.75;;
31306;SDS011;17935;51.120;13.132;2023-11-22T05:36:20;21.27;;;9.93;;
31306;SDS011;17935;51.120;13.132;2023-11-22T05:42:08;20.48;;;9.80;;
31306;SDS011;17935;51.120;13.132;2023-11-22T05:44:39;22.23;;;10.15;;
31306;SDS011;17935;51.120;13.132;2023-11-22T05:47:15;20.35;;;9.75;;
31306;SDS011;17935;51.120;13.132;2023-11-22T05:50:24;16.55;;;8.68;;
31306;SDS011;17935;51.120;13.132;2023-11-22T05:55:58;19.92;;;9.65;;
31306;SDS011;17935;51.120;13.132;2023-11-22T06:05:15;21.73;;;10.43;;
31306;SDS011;17935;51.120;13.132;2023-11-22T06:14:57;18.45;;;9.73;;
31306;SDS011;17935;51.120;13.132;2023-11-22T06:31:15;29.35;;;12.43;;
31306;SDS011;17935;51.120;13.132;2023-11-22T06:36:43;22.80;;;12.27;;
31306;SDS011;17935;51.120;13.132;2023-11-22T06:39:50;25.92;;;12.63;;
31306;SDS011;17935;51.120;13.132;2023-11-22T06:42:24;27.20;;;13.15;;
31306;SDS011;17935;51.120;13.132;2023-11-22T06:45:01;25.25;;;12.75;;
31306;SDS011;17935;51.120;13.132;2023-11-22T06:47:34;32.33;;;13.00;;
31306;SDS011;17935;51.120;13.132;2023-11-22T06:53:05;25.35;;;14.20;;
31306;SDS011;17935;51.120;13.132;2023-11-22T06:56:01;28.67;;;15.07;;
31306;SDS011;17935;51.120;13.132;2023-11-22T06:58:46;30.98;;;13.27;;
31306;SDS011;17935;51.120;13.132;2023-11-22T07:01:21;25.45;;;13.73;;
31306;SDS011;17935;51.120;13.132;2023-11-22T07:04:45;26.90;;;13.48;;
31306;SDS011;17935;51.120;13.132;2023-11-22T07:07:24;34.22;;;14.98;;
31306;SDS011;17935;51.120;13.132;2023-11-22T07:10:00;26.00;;;13.95;;
31306;SDS011;17935;51.120;13.132;2023-11-22T07:12:52;27.50;;;13.50;;
31306;SDS011;17935;51.120;13.132;2023-11-22T07:19:01;28.92;;;13.95;;
31306;SDS011;17935;51.120;13.132;2023-11-22T07:21:49;28.95;;;14.43;;
31306;SDS011;17935;51.120;13.132;2023-11-22T07:24:42;28.30;;;14.00;;
31306;SDS011;17935;51.120;13.132;2023-11-22T07:27:31;30.92;;;16.40;;
31306;SDS011;17935;51.120;13.132;2023-11-22T07:30:19;30.13;;;15.65;;
31306;SDS011;17935;51.120;13.132;2023-11-22T07:32:55;28.25;;;14.77;;
31306;SDS011;17935;51.120;13.132;2023-11-22T07:35:31;33.03;;;15.18;;
31306;SDS011;17935;51.120;13.132;2023-11-22T07:38:04;33.83;;;16.35;;
31306;SDS011;17935;51.120;13.132;2023-11-22T07:40:40;26.30;;;14.07;;
31306;SDS011;17935;51.120;13.132;2023-11-22T07:43:19;28.40;;;14.35;;
31306;SDS011;17935;51.120;13.132;2023-11-22T07:46:11;24.25;;;12.88;;
31306;SDS011;17935;51.120;13.132;2023-11-22T07:49:12;28.45;;;14.25;;
31306;SDS011;17935;51.120;13.132;2023-11-22T07:51:49;27.98;;;13.38;;
31306;SDS011;17935;51.120;13.132;2023-11-22T07:54:34;25.88;;;14.40;;
31306;SDS011;17935;51.120;13.132;2023-11-22T07:57:30;24.35;;;13.07;;
31306;SDS011;17935;51.120;13.132;2023-11-22T08:00:06;29.08;;;13.73;;
31306;SDS011;17935;51.120;13.132;2023-11-22T08:08:22;29.80;;;15.32;;
31306;SDS011;17935;51.120;13.132;2023-11-22T08:10:59;30.08;;;16.00;;
31306;SDS011;17935;51.120;13.132;2023-11-22T08:19:18;29.85;;;15.00;;
31306;SDS011;17935;51.120;13.132;2023-11-22T08:22:05;29.15;;;14.65;;
31306;SDS011;17935;51.120;13.132;2023-11-22T08:24:39;36.83;;;15.52;;
31306;SDS011;17935;51.120;13.132;2023-11-22T08:27:05;25.48;;;14.40;;
31306;SDS011;17935;51.120;13.132;2023-11-22T08:29:56;34.25;;;15.75;;
31306;SDS011;17935;51.120;13.132;2023-11-22T08:32:37;28.05;;;14.02;;
31306;SDS011;17935;51.120;13.132;2023-11-22T08:35:34;32.13;;;16.05;;
31306;SDS011;17935;51.120;13.132;2023-11-22T08:49:22;27.25;;;15.05;;
31306;SDS011;17935;51.120;13.132;2023-11-22T08:54:37;31.83;;;15.00;;
31306;SDS011;17935;51.120;13.132;2023-11-22T09:07:33;32.35;;;16.88;;
31306;SDS011;17935;51.120;13.132;2023-11-22T09:17:49;29.98;;;16.00;;
31306;SDS011;17935;51.120;13.132;2023-11-22T09:23:01;25.45;;;14.15;;
31306;SDS011;17935;51.120;13.132;2023-11-22T09:25:30;26.02;;;13.85;;
31306;SDS011;17935;51.120;13.132;2023-11-22T10:23:48;19.27;;;11.05;;
31306;SDS011;17935;51.120;13.132;2023-11-22T10:26:16;16.40;;;10.23;;
31306;SDS011;17935;51.120;13.132;2023-11-22T10:29:00;20.90;;;10.93;;
31306;SDS011;17935;51.120;13.132;2023-11-22T10:31:27;24.00;;;11.75;;
31306;SDS011;17935;51.120;13.132;2023-11-22T10:34:03;23.80;;;13.00;;
31306;SDS011;17935;51.120;13.132;2023-11-22T10:36:31;24.30;;;13.73;;
31306;SDS011;17935;51.120;13.132;2023-11-22T10:41:54;28.25;;;15.13;;
31306;SDS011;17935;51.120;13.132;2023-11-22T10:44:49;22.25;;;12.57;;
31306;SDS011;17935;51.120;13.132;2023-11-22T10:47:26;21.23;;;11.82;;
31306;SDS011;17935;51.120;13.132;2023-11-22T10:50:02;22.55;;;13.40;;
31306;SDS011;17935;51.120;13.132;2023-11-22T10:52:32;23.73;;;13.93;;
31306;SDS011;17935;51.120;13.132;2023-11-22T10:55:05;30.33;;;15.17;;
31306;SDS011;17935;51.120;13.132;2023-11-22T10:57:32;24.40;;;14.35;;
31306;SDS011;17935;51.120;13.132;2023-11-22T11:00:15;30.52;;;15.00;;
31306;SDS011;17935;51.120;13.132;2023-11-22T11:02:51;25.27;;;14.73;;
31306;SDS011;17935;51.120;13.132;2023-11-22T15:41:23;23.98;;;13.23;;
31306;SDS011;17935;51.120;13.132;2023-11-22T16:43:20;33.33;;;16.98;;
31306;SDS011;17935;51.120;13.132;2023-11-22T16:46:34;28.70;;;16.42;;
31306;SDS011;17935;51.120;13.132;2023-11-22T16:49:42;26.70;;;16.17;;
31306;SDS011;17935;51.120;13.132;2023-11-22T16:52:12;29.38;;;15.95;;
31306;SDS011;17935;51.120;13.132;2023-11-22T16:54:42;50.60;;;25.55;;
31306;SDS011;17935;51.120;13.132;2023-11-22T16:57:18;44.35;;;24.77;;
31306;SDS011;17935;51.120;13.132;2023-11-22T16:59:47;47.40;;;24.92;;
31306;SDS011;17935;51.120;13.132;2023-11-22T17:02:13;38.75;;;20.00;;
31306;SDS011;17935;51.120;13.132;2023-11-22T17:04:48;37.97;;;18.95;;
31306;SDS011;17935;51.120;13.132;2023-11-22T17:07:13;33.42;;;17.98;;
31306;SDS011;17935;51.120;13.132;2023-11-22T17:09:40;41.40;;;21.92;;
31306;SDS011;17935;51.120;13.132;2023-11-22T17:17:16;71.40;;;29.35;;
31306;SDS011;17935;51.120;13.132;2023-11-22T17:27:33;30.40;;;16.77;;
31306;SDS011;17935;51.120;13.132;2023-11-22T18:29:32;33.88;;;15.73;;
31306;SDS011;17935;51.120;13.132;2023-11-22T18:40:38;31.88;;;14.88;;
31306;SDS011;17935;51.120;13.132;2023-11-22T18:43:31;24.58;;;13.90;;
31306;SDS011;17935;51.120;13.132;2023-11-22T18:54:13;25.73;;;13.88;;
31306;SDS011;17935;51.120;13.132;2023-11-22T18:59:40;31.40;;;14.55;;
31306;SDS011;17935;51.120;13.132;2023-11-22T19:02:32;33.55;;;20.05;;
31306;SDS011;17935;51.120;13.132;2023-11-22T19:05:31;37.20;;;21.42;;
31306;SDS011;17935;51.120;13.132;2023-11-22T19:08:04;27.77;;;14.63;;
31306;SDS011;17935;51.120;13.132;2023-11-22T19:13:53;26.52;;;13.90;;
31306;SDS011;17935;51.120;13.132;2023-11-22T19:16:23;27.90;;;15.25;;
31306;SDS011;17935;51.120;13.132;2023-11-22T19:19:21;28.33;;;14.02;;
31306;SDS011;17935;51.120;13.132;2023-11-22T19:22:08;29.38;;;14.30;;
31306;SDS011;17935;51.120;13.132;2023-11-22T19:24:57;24.67;;;13.10;;
31306;SDS011;17935;51.120;13.132;2023-11-22T19:30:26;30.67;;;15.43;;
31306;SDS011;17935;51.120;13.132;2023-11-22T19:33:14;28.42;;;14.52;;
31306;SDS011;17935;51.120;13.132;2023-11-22T19:35:45;33.42;;;15.35;;
31306;SDS011;17935;51.120;13.132;2023-11-22T19:38:11;34.95;;;16.75;;
31306;SDS011;17935;51.120;13.132;2023-11-22T19:40:42;36.72;;;17.65;;
31306;SDS011;17935;51.120;13.132;2023-11-22T19:46:27;37.08;;;16.05;;
31306;SDS011;17935;51.120;13.132;2023-11-22T19:49:15;32.38;;;16.52;;
31306;SDS011;17935;51.120;13.132;2023-11-22T19:52:22;40.75;;;19.10;;
31306;SDS011;17935;51.120;13.132;2023-11-22T19:57:17;33.17;;;18.50;;
31306;SDS011;17935;51.120;13.132;2023-11-22T19:59:49;34.22;;;16.70;;
31306;SDS011;17935;51.120;13.132;2023-11-22T20:02:29;40.33;;;17.27;;
31306;SDS011;17935;51.120;13.132;2023-11-22T20:05:05;31.60;;;18.23;;
31306;SDS011;17935;51.120;13.132;2023-11-22T20:07:42;34.72;;;16.63;;
31306;SDS011;17935;51.120;13.132;2023-11-22T20:10:42;35.85;;;16.60;;
31306;SDS011;17935;51.120;13.132;2023-11-22T20:13:19;38.05;;;17.52;;
31306;SDS011;17935;51.120;13.132;2023-11-22T20:15:51;42.65;;;24.67;;
31306;SDS011;17935;51.120;13.132;2023-11-22T20:18:40;34.40;;;15.80;;
31306;SDS011;17935;51.120;13.132;2023-11-22T20:21:54;33.55;;;15.02;;
31306;SDS011;17935;51.120;13.132;2023-11-22T20:24:37;36.83;;;18.98;;
31306;SDS011;17935;51.120;13.132;2023-11-22T20:27:12;30.05;;;16.23;;
31306;SDS011;17935;51.120;13.132;2023-11-22T20:29:48;32.90;;;15.57;;
31306;SDS011;17935;51.120;13.132;2023-11-22T20:32:20;27.10;;;13.90;;
31306;SDS011;17935;51.120;13.132;2023-11-22T20:34:50;31.38;;;14.93;;
31306;SDS011;17935;51.120;13.132;2023-11-22T20:37:29;24.95;;;14.30;;
31306;SDS011;17935;51.120;13.132;2023-11-22T20:40:11;29.33;;;15.35;;
31306;SDS011;17935;51.120;13.132;2023-11-22T20:42:51;30.55;;;14.48;;
31306;SDS011;17935;51.120;13.132;2023-11-22T20:45:24;22.58;;;13.23;;
31306;SDS011;17935;51.120;13.132;2023-11-22T20:47:53;28.83;;;14.30;;
31306;SDS011;17935;51.120;13.132;2023-11-22T20:50:22;25.75;;;13.68;;
31306;SDS011;17935;51.120;13.132;2023-11-22T20:52:52;32.63;;;15.55;;
31306;SDS011;17935;51.120;13.132;2023-11-22T20:55:23;29.60;;;14.48;;
31306;SDS011;17935;51.120;13.132;2023-11-22T20:58:00;21.05;;;12.52;;
31306;SDS011;17935;51.120;13.132;2023-11-22T21:00:26;27.67;;;13.80;;
31306;SDS011;17935;51.120;13.132;2023-11-22T21:02:55;25.38;;;14.02;;
31306;SDS011;17935;51.120;13.132;2023-11-22T21:05:25;24.08;;;12.95;;
31306;SDS011;17935;51.120;13.132;2023-11-22T21:08:08;26.85;;;13.85;;
31306;SDS011;17935;51.120;13.132;2023-11-22T21:13:30;27.10;;;14.02;;
31306;SDS011;17935;51.120;13.132;2023-11-22T21:16:14;21.90;;;12.90;;
31306;SDS011;17935;51.120;13.132;2023-11-22T21:18:49;22.83;;;12.52;;
31306;SDS011;17935;51.120;13.132;2023-11-22T21:21:25;27.80;;;14.38;;
31306;SDS011;17935;51.120;13.132;2023-11-22T21:24:00;24.92;;;12.27;;
31306;SDS011;17935;51.120;13.132;2023-11-22T21:26:34;24.95;;;12.88;;
31306;SDS011;17935;51.120;13.132;2023-11-22T21:29:08;25.70;;;13.18;;
31306;SDS011;17935;51.120;13.132;2023-11-22T21:31:52;22.15;;;11.80;;
31306;SDS011;17935;51.120;13.132;2023-11-22T21:34:29;23.77;;;13.00;;
31306;SDS011;17935;51.120;13.132;2023-11-22T21:36:58;19.58;;;12.48;;
31306;SDS011;17935;51.120;13.132;2023-11-22T21:39:33;24.50;;;12.23;;
31306;SDS011;17935;51.120;13.132;2023-11-22T21:42:02;26.83;;;11.27;;
31306;SDS011;17935;51.120;13.132;2023-11-22T21:44:52;19.63;;;11.35;;
31306;SDS011;17935;51.120;13.132;2023-11-22T21:47:29;25.08;;;11.55;;
31306;SDS011;17935;51.120;13.132;2023-11-22T21:50:15;19.63;;;12.02;;
31306;SDS011;17935;51.120;13.132;2023-11-22T21:52:49;20.85;;;11.48;;
31306;SDS011;17935;51.120;13.132;2023-11-22T21:55:17;20.25;;;11.18;;
31306;SDS011;17935;51.120;13.132;2023-11-22T22:18:29;17.70;;;10.48;;
31306;SDS011;17935;51.120;13.132;2023-11-22T22:20:58;17.67;;;9.85;;
31306;SDS011;17935;51.120;13.132;2023-11-22T22:23:33;18.63;;;9.88;;
31306;SDS011;17935;51.120;13.132;2023-11-22T22:31:25;17.15;;;8.93;;
31306;SDS011;17935;51.120;13.132;2023-11-22T22:34:15;19.88;;;11.32;;
31306;SDS011;17935;51.120;13.132;2023-11-22T22:36:47;19.17;;;10.38;;
31306;SDS011;17935;51.120;13.132;2023-11-22T22:39:30;16.38;;;9.52;;
31306;SDS011;17935;51.120;13.132;2023-11-22T22:42:19;18.70;;;9.73;;
31306;SDS011;17935;51.120;13.132;2023-11-22T22:45:00;19.60;;;10.00;;
31306;SDS011;17935;51.120;13.132;2023-11-22T22:47:36;15.40;;;9.00;;
31306;SDS011;17935;51.120;13.132;2023-11-22T22:50:13;17.40;;;9.90;;
31306;SDS011;17935;51.120;13.132;2023-11-22T22:52:52;17.33;;;9.98;;
31306;SDS011;17935;51.120;13.132;2023-11-22T22:55:23;14.38;;;9.13;;
31306;SDS011;17935;51.120;13.132;2023-11-22T22:57:54;17.77;;;10.13;;
31306;SDS011;17935;51.120;13.132;2023-11-22T23:03:17;14.00;;;8.73;;
31306;SDS011;17935;51.120;13.132;2023-11-22T23:06:05;16.33;;;8.13;;
31306;SDS011;17935;51.120;13.132;2023-11-22T23:11:51;13.77;;;8.35;;
31306;SDS011;17935;51.120;13.132;2023-11-22T23:14:23;16.02;;;8.38;;
31306;SDS011;17935;51.120;13.132;2023-11-22T23:17:04;14.70;;;9.00;;
31306;SDS011;17935;51.120;13.132;2023-11-22T23:19:34;16.38;;;9.50;;
31306;SDS011;17935;51.120;13.132;2023-11-22T23:22:26;15.80;;;8.30;;
31306;SDS011;17935;51.120;13.132;2023-11-22T23:25:03;14.77;;;8.75;;
31306;SDS011;17935;51.120;13.132;2023-11-22T23:27:40;14.90;;;8.45;;
31306;SDS011;17935;51.120;13.132;2023-11-22T23:30:27;17.45;;;8.48;;
31306;SDS011;17935;51.120;13.132;2023-11-22T23:32:55;12.88;;;7.72;;
31306;SDS011;17935;51.120;13.132;2023-11-22T23:35:24;14.35;;;7.80;;
31306;SDS011;17935;51.120;13.132;2023-11-22T23:37:59;13.05;;;7.63;;
31306;SDS011;17935;51.120;13.132;2023-11-22T23:40:49;15.93;;;8.18;;
31306;SDS011;17935;51.120;13.132;2023-11-22T23:43:39;12.25;;;7.75;;
31306;SDS011;17935;51.120;13.132;2023-11-22T23:59:21;13.88;;;7.93;;
